createdAt,value
2022-11-04T00:01:22.602Z,30.40
2022-11-04T00:04:26.749Z,30.30
2022-11-04T00:07:47.333Z,30.70
2022-11-04T00:11:15.486Z,30.70
2022-11-04T00:14:19.741Z,30.70
2022-11-04T00:17:22.801Z,30.70
2022-11-04T00:20:43.231Z,30.90
2022-11-04T00:24:14.734Z,30.90
2022-11-04T00:27:37.608Z,30.80
2022-11-04T00:30:39.789Z,30.80
2022-11-04T00:33:41.660Z,30.80
2022-11-04T00:36:43.874Z,30.70
2022-11-04T00:39:45.923Z,30.70
2022-11-04T00:42:48.165Z,30.60
2022-11-04T00:45:50.116Z,30.50
2022-11-04T00:48:52.387Z,30.50
2022-11-04T00:51:54.312Z,30.20
2022-11-04T00:54:56.441Z,30.20
2022-11-04T00:57:59.199Z,30.50
2022-11-04T01:01:06.863Z,30.60
2022-11-04T01:04:09.364Z,30.50
2022-11-04T01:07:11.531Z,30.50
2022-11-04T01:10:13.558Z,30.50
2022-11-04T01:13:15.689Z,30.10
2022-11-04T01:16:19.085Z,30.30
2022-11-04T01:19:21.455Z,30.30
2022-11-04T01:22:23.398Z,30.40
2022-11-04T01:25:25.966Z,30.50
2022-11-04T01:28:27.864Z,30.40
2022-11-04T01:31:31.403Z,30.40
2022-11-04T01:34:33.329Z,30.40
2022-11-04T01:37:35.599Z,30.60
2022-11-04T01:40:39.477Z,30.50
2022-11-04T01:44:26.362Z,30.60
2022-11-04T01:47:39.904Z,30.70
2022-11-04T01:50:42.076Z,30.70
2022-11-04T01:53:45.003Z,30.50
2022-11-04T01:56:48.779Z,30.50
2022-11-04T01:59:51.032Z,30.20
2022-11-04T02:03:01.827Z,30.20
2022-11-04T02:06:05.993Z,30.30
2022-11-04T02:12:34.433Z,30.40
2022-11-04T02:16:16.949Z,30.20
2022-11-04T02:19:36.903Z,30.30
2022-11-04T02:23:17.918Z,30.40
2022-11-04T02:26:51.286Z,30.30
2022-11-04T02:30:14.316Z,30.40
2022-11-04T02:33:29.743Z,30.40
2022-11-04T02:36:50.638Z,30.40
2022-11-04T02:40:06.467Z,30.40
2022-11-04T02:43:11.793Z,30.30
2022-11-04T02:46:22.328Z,30.20
2022-11-04T02:49:33.897Z,30.40
2022-11-04T02:53:09.117Z,30.20
2022-11-04T02:56:13.453Z,30.40
2022-11-04T02:59:22.046Z,30.50
2022-11-04T03:02:33.542Z,30.50
2022-11-04T03:05:39.091Z,30.40
2022-11-04T03:08:48.684Z,30.10
2022-11-04T03:11:55.818Z,30.20
2022-11-04T03:15:03.983Z,30.20
2022-11-04T03:18:29.348Z,30.30
2022-11-04T03:21:36.978Z,30.00
2022-11-04T03:24:40.412Z,30.10
2022-11-04T03:27:50.051Z,30.10
2022-11-04T03:30:56.428Z,30.00
2022-11-04T03:33:58.852Z,30.00
2022-11-04T03:37:01.237Z,30.00
2022-11-04T03:40:04.694Z,30.00
2022-11-04T03:43:21.498Z,29.90
2022-11-04T03:46:25.396Z,29.60
2022-11-04T03:49:27.681Z,29.60
2022-11-04T03:52:29.897Z,29.80
2022-11-04T03:55:59.050Z,29.70
2022-11-04T03:59:27.161Z,29.90
2022-11-04T04:02:58.794Z,29.90
2022-11-04T04:06:29.616Z,29.90
2022-11-04T04:09:39.743Z,29.90
2022-11-04T04:12:42.401Z,29.90
2022-11-04T04:15:50.673Z,30.10
2022-11-04T04:18:58.786Z,29.90
2022-11-04T04:22:11.755Z,30.10
2022-11-04T04:25:35.633Z,30.10
2022-11-04T04:28:39.076Z,30.20
2022-11-04T04:31:50.746Z,30.20
2022-11-04T04:35:12.777Z,30.20
2022-11-04T04:38:45.283Z,30.10
2022-11-04T04:42:07.088Z,30.10
2022-11-04T04:45:10.962Z,30.10
2022-11-04T04:48:13.753Z,30.00
2022-11-04T04:51:16.279Z,30.00
2022-11-04T04:54:18.231Z,30.00
2022-11-04T04:57:20.335Z,30.00
2022-11-04T05:00:22.408Z,30.20
2022-11-04T05:03:25.185Z,30.20
2022-11-04T05:06:27.133Z,30.20
2022-11-04T05:09:29.354Z,30.20
2022-11-04T05:12:51.226Z,30.10
2022-11-04T05:15:53.888Z,30.10
2022-11-04T05:18:55.814Z,29.90
2022-11-04T05:21:58.746Z,29.70
2022-11-04T05:25:00.630Z,29.70
2022-11-04T05:28:04.104Z,29.50
2022-11-04T05:31:06.952Z,29.50
2022-11-04T05:34:11.513Z,29.50
2022-11-04T05:37:13.423Z,29.50
2022-11-04T05:40:15.735Z,29.50
2022-11-04T05:43:17.614Z,29.30
2022-11-04T05:46:20.002Z,29.30
2022-11-04T05:49:22.064Z,29.30
2022-11-04T05:52:24.237Z,29.20
2022-11-04T05:55:26.811Z,29.20
2022-11-04T05:58:28.974Z,29.40
2022-11-04T06:01:30.928Z,29.40
2022-11-04T06:04:33.552Z,29.50
2022-11-04T06:07:35.755Z,29.50
2022-11-04T06:10:37.988Z,29.30
2022-11-04T06:13:39.949Z,29.40
2022-11-04T06:16:42.070Z,29.40
2022-11-04T06:19:44.209Z,29.50
2022-11-04T06:22:46.370Z,29.60
2022-11-04T06:25:48.306Z,29.70
2022-11-04T06:28:50.734Z,29.80
2022-11-04T06:31:52.717Z,29.60
2022-11-04T06:34:55.108Z,29.50
2022-11-04T06:37:57.353Z,29.70
2022-11-04T06:40:59.868Z,29.70
2022-11-04T06:44:01.789Z,29.80
2022-11-04T06:47:04.582Z,30.00
2022-11-04T06:50:06.769Z,29.80
2022-11-04T06:53:09.104Z,29.50
2022-11-04T06:56:11.278Z,29.50
2022-11-04T06:59:19.208Z,29.60
2022-11-04T07:02:21.236Z,29.90
2022-11-04T07:05:23.739Z,30.00
2022-11-04T07:08:25.600Z,30.00
2022-11-04T07:11:31.516Z,30.10
2022-11-04T07:14:33.431Z,30.20
2022-11-04T07:17:35.744Z,30.10
2022-11-04T07:20:37.825Z,30.40
2022-11-04T07:23:40.531Z,30.40
2022-11-04T07:26:42.618Z,30.20
2022-11-04T07:29:44.758Z,30.40
2022-11-04T07:32:47.377Z,30.50
2022-11-04T07:35:54.029Z,30.70
2022-11-04T07:38:57.588Z,30.60
2022-11-04T07:41:59.931Z,30.90
2022-11-04T07:45:02.821Z,31.00
2022-11-04T07:48:05.047Z,30.80
2022-11-04T07:51:09.093Z,31.00
2022-11-04T07:54:11.311Z,31.10
2022-11-04T07:57:13.367Z,31.30
2022-11-04T08:00:16.514Z,31.30
2022-11-04T08:03:18.526Z,31.60
2022-11-04T08:06:22.441Z,31.70
2022-11-04T08:09:24.549Z,31.80
2022-11-04T08:12:27.803Z,32.10
2022-11-04T08:15:29.750Z,32.20
2022-11-04T08:18:33.645Z,31.90
2022-11-04T08:21:35.591Z,31.80
2022-11-04T08:24:38.117Z,31.90
2022-11-04T08:27:40.711Z,32.00
2022-11-04T08:30:56.430Z,32.20
2022-11-04T08:33:58.438Z,32.20
2022-11-04T08:37:02.092Z,32.30
2022-11-04T08:40:05.292Z,32.50
2022-11-04T08:43:08.834Z,32.40
2022-11-04T08:46:11.492Z,32.20
2022-11-04T08:49:19.519Z,32.50
2022-11-04T08:52:24.249Z,32.40
2022-11-04T08:55:29.521Z,32.30
2022-11-04T08:58:31.518Z,32.40
2022-11-04T09:01:36.386Z,32.50
2022-11-04T09:04:38.418Z,32.20
2022-11-04T09:07:41.311Z,32.50
2022-11-04T09:10:45.439Z,32.40
2022-11-04T09:13:47.693Z,32.40
2022-11-04T09:16:49.748Z,32.60
2022-11-04T09:19:52.250Z,32.50
2022-11-04T09:22:56.151Z,32.20
2022-11-04T09:26:03.304Z,32.10
2022-11-04T09:29:06.773Z,32.30
2022-11-04T09:32:09.106Z,32.50
2022-11-04T09:35:11.747Z,32.20
2022-11-04T09:38:14.153Z,32.20
2022-11-04T09:41:47.294Z,32.20
2022-11-04T09:45:22.102Z,32.40
2022-11-04T09:48:40.855Z,32.30
2022-11-04T09:51:55.235Z,32.10
2022-11-04T09:55:13.365Z,32.50
2022-11-04T09:58:15.696Z,32.50
2022-11-04T10:01:30.654Z,32.50
2022-11-04T10:04:49.165Z,32.70
2022-11-04T10:08:15.702Z,32.40
2022-11-04T10:11:40.269Z,32.50
2022-11-04T10:14:55.504Z,32.90
2022-11-04T10:18:03.188Z,32.90
2022-11-04T10:21:40.423Z,32.60
2022-11-04T10:25:05.959Z,32.20
2022-11-04T10:28:13.377Z,32.80
2022-11-04T10:31:18.458Z,33.00
2022-11-04T10:34:45.644Z,33.00
2022-11-04T10:37:53.072Z,33.20
2022-11-04T10:40:55.786Z,33.00
2022-11-04T10:44:05.939Z,32.90
2022-11-04T10:47:18.763Z,32.90
2022-11-04T10:50:44.816Z,32.90
2022-11-04T10:53:46.785Z,32.90
2022-11-04T10:56:56.022Z,32.60
2022-11-04T11:00:00.688Z,32.70
2022-11-04T11:03:02.920Z,32.60
2022-11-04T11:06:15.499Z,32.80
2022-11-04T11:09:32.424Z,32.90
2022-11-04T11:12:56.182Z,32.60
2022-11-04T11:16:18.737Z,32.60
2022-11-04T11:19:22.781Z,32.60
2022-11-04T11:22:35.430Z,32.50
2022-11-04T11:25:45.354Z,32.40
2022-11-04T11:28:59.212Z,32.50
2022-11-04T11:32:01.563Z,32.40
2022-11-04T11:35:07.699Z,32.60
2022-11-04T11:38:24.263Z,32.80
2022-11-04T11:41:34.155Z,32.60
2022-11-04T11:44:46.955Z,32.90
2022-11-04T11:47:54.865Z,32.60
2022-11-04T11:51:01.278Z,32.90
2022-11-04T11:54:18.738Z,32.70
2022-11-04T11:57:45.210Z,32.70
2022-11-04T12:01:16.702Z,32.80
2022-11-04T12:11:27.974Z,31.50
2022-11-04T12:14:49.193Z,31.50
2022-11-04T12:18:28.354Z,31.20
2022-11-04T12:21:35.422Z,31.70
2022-11-04T12:24:53.287Z,32.00
2022-11-04T12:28:22.365Z,32.00
2022-11-04T12:31:30.378Z,32.40
2022-11-04T12:34:54.251Z,32.60
2022-11-04T12:38:31.580Z,32.70
2022-11-04T12:42:19.514Z,32.60
2022-11-04T12:45:32.546Z,32.50
2022-11-04T12:49:02.991Z,32.60
2022-11-04T12:52:31.300Z,32.80
2022-11-04T12:55:52.131Z,33.00
2022-11-04T12:59:15.311Z,33.10
2022-11-04T13:02:28.729Z,33.30
2022-11-04T13:05:38.210Z,33.10
2022-11-04T13:08:43.600Z,33.20
2022-11-04T13:11:58.934Z,33.20
2022-11-04T13:15:04.958Z,33.20
2022-11-04T13:18:11.458Z,33.20
2022-11-04T13:21:21.679Z,32.90
2022-11-04T13:24:31.919Z,32.90
2022-11-04T13:27:39.074Z,32.70
2022-11-04T13:30:57.672Z,32.80
2022-11-04T13:34:39.357Z,32.90
2022-11-04T13:38:03.588Z,32.70
2022-11-04T13:41:24.455Z,32.50
2022-11-04T13:44:30.003Z,32.40
2022-11-04T13:47:42.972Z,32.50
2022-11-04T13:50:44.885Z,32.50
2022-11-04T13:53:53.482Z,32.50
2022-11-04T13:57:18.054Z,32.70
2022-11-04T14:00:23.866Z,32.70
2022-11-04T14:03:28.651Z,32.60
2022-11-04T14:06:56.094Z,32.50
2022-11-04T14:09:58.393Z,32.30
2022-11-04T14:13:29.753Z,32.30
2022-11-04T14:16:39.487Z,32.30
2022-11-04T14:19:59.376Z,32.20
2022-11-04T14:23:03.971Z,32.00
2022-11-04T14:26:17.740Z,31.80
2022-11-04T14:29:26.200Z,31.40
2022-11-04T14:32:34.847Z,31.50
2022-11-04T14:35:37.042Z,31.50
2022-11-04T14:38:39.597Z,31.80
2022-11-04T14:41:41.400Z,31.60
2022-11-04T14:44:50.314Z,31.80
2022-11-04T14:47:56.223Z,31.40
2022-11-04T14:50:58.684Z,31.40
2022-11-04T14:54:12.906Z,31.20
2022-11-04T14:57:20.589Z,31.20
2022-11-04T15:00:50.106Z,31.10
2022-11-04T15:07:33.804Z,31.50
2022-11-04T15:10:35.950Z,31.30
2022-11-04T15:13:44.724Z,31.20
2022-11-04T15:16:51.023Z,31.40
2022-11-04T15:19:56.039Z,31.30
2022-11-04T15:23:01.535Z,31.30
2022-11-04T15:26:05.100Z,31.60
2022-11-04T15:29:12.906Z,31.80
2022-11-04T15:32:18.046Z,31.70
2022-11-04T15:35:21.165Z,31.70
2022-11-04T15:38:27.183Z,31.90
2022-11-04T15:41:51.114Z,32.20
2022-11-04T15:44:55.020Z,32.10
2022-11-04T15:48:28.476Z,32.00
2022-11-04T15:51:36.028Z,31.90
2022-11-04T15:54:42.425Z,32.00
2022-11-04T15:57:45.299Z,31.70
2022-11-04T16:00:55.826Z,31.80
2022-11-04T16:04:02.676Z,31.80
2022-11-04T16:07:11.071Z,31.90
2022-11-04T16:10:24.995Z,32.00
2022-11-04T16:13:27.812Z,31.90
2022-11-04T16:16:29.785Z,32.00
2022-11-04T16:19:32.351Z,32.20
2022-11-04T16:22:42.424Z,32.20
2022-11-04T16:25:44.931Z,32.30
2022-11-04T16:28:46.854Z,32.20
2022-11-04T16:32:08.177Z,31.70
2022-11-04T16:35:20.119Z,31.60
2022-11-04T16:38:22.663Z,31.60
2022-11-04T16:41:27.094Z,31.80
2022-11-04T16:44:29.590Z,31.80
2022-11-04T16:47:34.764Z,31.70
2022-11-04T16:50:36.974Z,31.60
2022-11-04T16:53:38.918Z,31.70
2022-11-04T16:56:41.099Z,31.60
2022-11-04T16:59:43.429Z,31.80
2022-11-04T17:02:46.195Z,32.00
2022-11-04T17:05:58.967Z,32.00
2022-11-04T17:09:02.359Z,31.70
2022-11-04T17:12:04.573Z,31.50
2022-11-04T17:15:08.019Z,31.60
2022-11-04T17:18:16.743Z,31.60
2022-11-04T17:21:20.505Z,31.90
2022-11-04T17:24:22.407Z,32.20
2022-11-04T17:27:25.695Z,32.20
2022-11-04T17:30:27.778Z,32.40
2022-11-04T17:33:29.961Z,32.30
2022-11-04T17:36:32.299Z,32.50
2022-11-04T17:39:34.652Z,32.50
2022-11-04T17:42:54.885Z,32.50
2022-11-04T17:46:17.021Z,32.40
2022-11-04T17:49:24.396Z,32.50
2022-11-04T17:52:27.749Z,32.50
2022-11-04T17:55:29.951Z,32.40
2022-11-04T17:58:32.423Z,32.40
2022-11-04T18:01:35.870Z,32.30
2022-11-04T18:04:38.198Z,32.20
2022-11-04T18:07:40.122Z,31.90
2022-11-04T18:10:42.349Z,32.10
2022-11-04T18:13:44.314Z,32.20
2022-11-04T18:16:49.695Z,32.30
2022-11-04T18:19:52.417Z,32.40
2022-11-04T18:22:54.835Z,32.50
2022-11-04T18:26:08.557Z,32.50
2022-11-04T18:29:11.136Z,32.70
2022-11-04T18:32:13.199Z,32.50
2022-11-04T18:35:15.509Z,32.50
2022-11-04T18:38:17.511Z,32.60
2022-11-04T18:41:19.892Z,32.60
2022-11-04T18:44:22.680Z,32.60
2022-11-04T18:47:26.725Z,32.50
2022-11-04T18:50:30.195Z,32.40
2022-11-04T18:53:32.404Z,32.20
2022-11-04T18:56:35.056Z,32.20
2022-11-04T18:59:37.822Z,32.40
2022-11-04T19:02:40.009Z,32.40
2022-11-04T19:05:42.685Z,32.30
2022-11-04T19:08:46.988Z,32.30
2022-11-04T19:12:09.583Z,32.40
2022-11-04T19:15:11.608Z,32.20
2022-11-04T19:18:15.037Z,32.20
2022-11-04T19:21:19.940Z,31.80
2022-11-04T19:24:22.215Z,32.00
2022-11-04T19:27:25.060Z,31.90
2022-11-04T19:30:27.544Z,31.90
2022-11-04T19:33:30.469Z,31.80
2022-11-04T19:36:34.428Z,32.00
2022-11-04T19:39:36.757Z,31.90
2022-11-04T19:42:57.451Z,31.50
2022-11-04T19:46:05.711Z,32.00
2022-11-04T19:49:13.216Z,31.70
2022-11-04T19:52:19.166Z,31.80
2022-11-04T19:55:26.625Z,31.60
2022-11-04T19:58:29.330Z,31.70
2022-11-04T20:01:34.506Z,31.60
2022-11-04T20:04:45.964Z,31.80
2022-11-04T20:07:54.297Z,31.30
2022-11-04T20:10:56.707Z,31.50
2022-11-04T20:14:04.752Z,31.70
2022-11-04T20:17:09.996Z,32.00
2022-11-04T20:20:13.064Z,31.80
2022-11-04T20:23:15.256Z,31.60
2022-11-04T20:26:20.921Z,31.50
2022-11-04T20:29:23.203Z,31.70
2022-11-04T20:32:25.341Z,31.80
2022-11-04T20:35:27.809Z,32.10
2022-11-04T20:38:30.506Z,32.20
2022-11-04T20:41:33.098Z,32.20
2022-11-04T20:44:35.708Z,32.30
2022-11-04T20:47:37.779Z,32.20
2022-11-04T20:50:40.311Z,32.30
2022-11-04T20:53:43.493Z,32.40
2022-11-04T20:56:45.752Z,32.40
2022-11-04T20:59:47.756Z,32.30
2022-11-04T21:02:50.533Z,32.30
2022-11-04T21:05:53.129Z,32.30
2022-11-04T21:08:58.189Z,32.20
2022-11-04T21:12:00.205Z,32.20
2022-11-04T21:15:02.475Z,32.00
2022-11-04T21:18:04.947Z,31.90
2022-11-04T21:21:09.321Z,31.90
2022-11-04T21:24:13.796Z,31.80
2022-11-04T21:27:16.019Z,31.80
2022-11-04T21:30:18.175Z,31.80
2022-11-04T21:33:20.919Z,31.70
2022-11-04T21:36:26.636Z,31.70
2022-11-04T21:39:30.505Z,31.60
2022-11-04T21:42:41.931Z,31.50
2022-11-04T21:58:51.841Z,30.60
2022-11-04T22:01:54.224Z,29.90
2022-11-04T22:04:56.284Z,30.30
2022-11-04T22:08:16.499Z,30.70
2022-11-04T22:11:25.214Z,31.00
2022-11-04T22:14:28.310Z,31.10
2022-11-04T22:17:30.208Z,31.20
2022-11-04T22:20:35.018Z,31.20
2022-11-04T22:43:21.133Z,31.60
2022-11-04T22:46:28.862Z,30.10
2022-11-04T22:49:30.786Z,30.60
2022-11-04T22:52:32.936Z,31.00
2022-11-04T22:55:36.170Z,31.20
2022-11-04T22:58:38.961Z,31.10
2022-11-04T23:01:40.953Z,31.40
2022-11-04T23:04:44.955Z,31.40
2022-11-04T23:07:46.922Z,31.60
2022-11-04T23:11:07.756Z,31.60
2022-11-04T23:14:32.099Z,31.50
2022-11-04T23:17:53.118Z,31.10
2022-11-04T23:21:15.156Z,31.10
2022-11-04T23:24:36.045Z,30.90
2022-11-04T23:28:08.277Z,31.10
2022-11-04T23:31:10.397Z,31.30
2022-11-04T23:34:31.006Z,31.40
2022-11-04T23:37:33.203Z,31.60
2022-11-04T23:40:35.177Z,31.60
2022-11-04T23:43:37.309Z,31.60
2022-11-04T23:46:57.619Z,31.60
2022-11-04T23:50:18.579Z,31.70
2022-11-04T23:53:39.549Z,31.70
2022-11-04T23:57:16.989Z,31.80
